sensor_id;sensor_type;location;lat;lon;timestamp;P1;durP1;ratioP1;P2;durP2;ratioP2
15818;SDS011;8010;53.986;12.106;2022-09-09T00:03:59;11.20;;;8.70;;
15818;SDS011;8010;53.986;12.106;2022-09-09T00:06:43;12.20;;;8.73;;
15818;SDS011;8010;53.986;12.106;2022-09-09T00:09:13;10.13;;;8.03;;
15818;SDS011;8010;53.986;12.106;2022-09-09T00:11:43;12.53;;;9.03;;
15818;SDS011;8010;53.986;12.106;2022-09-09T00:14:14;10.23;;;8.10;;
15818;SDS011;8010;53.986;12.106;2022-09-09T00:17:12;11.77;;;9.40;;
15818;SDS011;8010;53.986;12.106;2022-09-09T00:19:47;13.27;;;8.77;;
15818;SDS011;8010;53.986;12.106;2022-09-09T00:22:25;11.20;;;8.90;;
15818;SDS011;8010;53.986;12.106;2022-09-09T00:24:53;11.00;;;9.03;;
15818;SDS011;8010;53.986;12.106;2022-09-09T00:27:36;14.03;;;9.00;;
15818;SDS011;8010;53.986;12.106;2022-09-09T00:30:16;10.87;;;8.50;;
15818;SDS011;8010;53.986;12.106;2022-09-09T00:32:52;12.30;;;8.80;;
15818;SDS011;8010;53.986;12.106;2022-09-09T00:35:24;12.40;;;8.70;;
15818;SDS011;8010;53.986;12.106;2022-09-09T00:37:55;11.83;;;8.67;;
15818;SDS011;8010;53.986;12.106;2022-09-09T00:40:29;11.43;;;8.63;;
15818;SDS011;8010;53.986;12.106;2022-09-09T00:54:18;11.50;;;8.50;;
15818;SDS011;8010;53.986;12.106;2022-09-09T00:56:51;12.67;;;8.37;;
15818;SDS011;8010;53.986;12.106;2022-09-09T00:59:32;11.47;;;8.43;;
15818;SDS011;8010;53.986;12.106;2022-09-09T01:02:01;11.87;;;8.10;;
15818;SDS011;8010;53.986;12.106;2022-09-09T01:04:38;11.80;;;8.37;;
15818;SDS011;8010;53.986;12.106;2022-09-09T01:07:08;11.70;;;8.20;;
15818;SDS011;8010;53.986;12.106;2022-09-09T01:09:46;9.67;;;7.63;;
15818;SDS011;8010;53.986;12.106;2022-09-09T01:12:28;12.57;;;8.67;;
15818;SDS011;8010;53.986;12.106;2022-09-09T01:15:17;11.17;;;8.20;;
15818;SDS011;8010;53.986;12.106;2022-09-09T01:17:51;9.43;;;7.57;;
15818;SDS011;8010;53.986;12.106;2022-09-09T01:20:37;10.03;;;7.93;;
15818;SDS011;8010;53.986;12.106;2022-09-09T01:26:12;12.37;;;7.80;;
15818;SDS011;8010;53.986;12.106;2022-09-09T01:28:39;10.40;;;7.80;;
15818;SDS011;8010;53.986;12.106;2022-09-09T01:31:07;9.63;;;7.30;;
15818;SDS011;8010;53.986;12.106;2022-09-09T01:33:36;11.13;;;8.20;;
15818;SDS011;8010;53.986;12.106;2022-09-09T01:36:10;10.53;;;7.77;;
15818;SDS011;8010;53.986;12.106;2022-09-09T01:38:44;12.13;;;8.40;;
15818;SDS011;8010;53.986;12.106;2022-09-09T01:41:09;10.27;;;8.10;;
15818;SDS011;8010;53.986;12.106;2022-09-09T01:43:35;12.43;;;9.10;;
15818;SDS011;8010;53.986;12.106;2022-09-09T01:46:01;9.60;;;7.50;;
15818;SDS011;8010;53.986;12.106;2022-09-09T01:48:27;11.77;;;8.67;;
15818;SDS011;8010;53.986;12.106;2022-09-09T01:50:54;17.33;;;8.57;;
15818;SDS011;8010;53.986;12.106;2022-09-09T01:53:21;10.30;;;8.27;;
15818;SDS011;8010;53.986;12.106;2022-09-09T01:56:00;10.10;;;8.07;;
15818;SDS011;8010;53.986;12.106;2022-09-09T02:01:51;9.40;;;7.93;;
15818;SDS011;8010;53.986;12.106;2022-09-09T02:04:40;12.13;;;8.77;;
15818;SDS011;8010;53.986;12.106;2022-09-09T02:09:53;10.40;;;7.50;;
15818;SDS011;8010;53.986;12.106;2022-09-09T02:12:30;11.43;;;8.40;;
15818;SDS011;8010;53.986;12.106;2022-09-09T02:14:59;10.90;;;8.03;;
15818;SDS011;8010;53.986;12.106;2022-09-09T02:17:33;10.80;;;8.53;;
15818;SDS011;8010;53.986;12.106;2022-09-09T02:20:03;9.57;;;7.97;;
15818;SDS011;8010;53.986;12.106;2022-09-09T02:22:33;11.20;;;7.60;;
15818;SDS011;8010;53.986;12.106;2022-09-09T02:25:00;11.50;;;8.73;;
15818;SDS011;8010;53.986;12.106;2022-09-09T02:27:27;11.53;;;8.50;;
15818;SDS011;8010;53.986;12.106;2022-09-09T02:29:53;11.77;;;8.83;;
15818;SDS011;8010;53.986;12.106;2022-09-09T02:32:22;11.40;;;8.53;;
15818;SDS011;8010;53.986;12.106;2022-09-09T02:34:50;10.63;;;8.63;;
15818;SDS011;8010;53.986;12.106;2022-09-09T02:37:24;11.50;;;8.80;;
15818;SDS011;8010;53.986;12.106;2022-09-09T02:39:56;12.00;;;9.40;;
15818;SDS011;8010;53.986;12.106;2022-09-09T02:42:22;12.77;;;9.47;;
15818;SDS011;8010;53.986;12.106;2022-09-09T02:44:48;12.50;;;9.30;;
15818;SDS011;8010;53.986;12.106;2022-09-09T02:49:59;13.43;;;9.63;;
15818;SDS011;8010;53.986;12.106;2022-09-09T02:53:02;13.27;;;10.10;;
15818;SDS011;8010;53.986;12.106;2022-09-09T02:58:10;16.73;;;9.60;;
15818;SDS011;8010;53.986;12.106;2022-09-09T03:00:41;13.40;;;10.30;;
15818;SDS011;8010;53.986;12.106;2022-09-09T03:03:09;14.73;;;10.50;;
15818;SDS011;8010;53.986;12.106;2022-09-09T03:05:35;14.30;;;10.20;;
15818;SDS011;8010;53.986;12.106;2022-09-09T03:08:01;16.47;;;10.77;;
15818;SDS011;8010;53.986;12.106;2022-09-09T03:10:27;13.80;;;10.57;;
15818;SDS011;8010;53.986;12.106;2022-09-09T03:12:53;15.00;;;10.60;;
15818;SDS011;8010;53.986;12.106;2022-09-09T03:15:18;14.47;;;9.97;;
15818;SDS011;8010;53.986;12.106;2022-09-09T03:17:44;14.93;;;10.67;;
15818;SDS011;8010;53.986;12.106;2022-09-09T03:20:09;19.60;;;11.47;;
15818;SDS011;8010;53.986;12.106;2022-09-09T03:22:35;19.40;;;11.90;;
15818;SDS011;8010;53.986;12.106;2022-09-09T03:25:01;15.60;;;11.50;;
15818;SDS011;8010;53.986;12.106;2022-09-09T03:27:27;16.87;;;11.93;;
15818;SDS011;8010;53.986;12.106;2022-09-09T03:29:53;14.53;;;11.50;;
15818;SDS011;8010;53.986;12.106;2022-09-09T03:32:19;20.13;;;12.60;;
15818;SDS011;8010;53.986;12.106;2022-09-09T03:34:47;16.80;;;12.43;;
15818;SDS011;8010;53.986;12.106;2022-09-09T03:37:14;19.07;;;12.23;;
15818;SDS011;8010;53.986;12.106;2022-09-09T03:39:41;18.07;;;12.47;;
15818;SDS011;8010;53.986;12.106;2022-09-09T03:42:06;17.37;;;12.63;;
15818;SDS011;8010;53.986;12.106;2022-09-09T03:44:32;17.27;;;12.83;;
15818;SDS011;8010;53.986;12.106;2022-09-09T03:46:57;18.03;;;12.20;;
15818;SDS011;8010;53.986;12.106;2022-09-09T03:49:25;18.10;;;12.67;;
15818;SDS011;8010;53.986;12.106;2022-09-09T03:51:51;18.30;;;12.53;;
15818;SDS011;8010;53.986;12.106;2022-09-09T03:54:16;18.30;;;12.73;;
15818;SDS011;8010;53.986;12.106;2022-09-09T03:56:42;19.20;;;12.20;;
15818;SDS011;8010;53.986;12.106;2022-09-09T03:59:07;18.13;;;12.43;;
15818;SDS011;8010;53.986;12.106;2022-09-09T04:01:33;19.10;;;12.70;;
15818;SDS011;8010;53.986;12.106;2022-09-09T04:03:59;17.60;;;12.80;;
15818;SDS011;8010;53.986;12.106;2022-09-09T04:06:27;21.47;;;11.77;;
15818;SDS011;8010;53.986;12.106;2022-09-09T04:08:53;19.23;;;13.33;;
15818;SDS011;8010;53.986;12.106;2022-09-09T04:11:20;20.43;;;12.77;;
15818;SDS011;8010;53.986;12.106;2022-09-09T04:13:45;20.07;;;12.93;;
15818;SDS011;8010;53.986;12.106;2022-09-09T04:16:11;20.43;;;13.37;;
15818;SDS011;8010;53.986;12.106;2022-09-09T04:18:38;20.87;;;12.87;;
15818;SDS011;8010;53.986;12.106;2022-09-09T04:21:04;18.87;;;12.93;;
15818;SDS011;8010;53.986;12.106;2022-09-09T04:23:31;22.00;;;13.10;;
15818;SDS011;8010;53.986;12.106;2022-09-09T04:25:59;19.43;;;12.53;;
15818;SDS011;8010;53.986;12.106;2022-09-09T04:28:27;19.43;;;12.97;;
15818;SDS011;8010;53.986;12.106;2022-09-09T04:30:55;23.87;;;13.77;;
15818;SDS011;8010;53.986;12.106;2022-09-09T04:33:23;20.30;;;12.40;;
15818;SDS011;8010;53.986;12.106;2022-09-09T04:35:51;19.97;;;12.93;;
15818;SDS011;8010;53.986;12.106;2022-09-09T04:38:18;19.53;;;12.83;;
15818;SDS011;8010;53.986;12.106;2022-09-09T04:40:47;23.57;;;13.10;;
15818;SDS011;8010;53.986;12.106;2022-09-09T04:43:13;19.93;;;12.87;;
15818;SDS011;8010;53.986;12.106;2022-09-09T04:45:39;21.47;;;12.67;;
15818;SDS011;8010;53.986;12.106;2022-09-09T04:48:06;21.63;;;13.77;;
15818;SDS011;8010;53.986;12.106;2022-09-09T04:50:32;21.63;;;12.93;;
15818;SDS011;8010;53.986;12.106;2022-09-09T04:53:02;24.00;;;13.93;;
15818;SDS011;8010;53.986;12.106;2022-09-09T04:55:28;28.23;;;14.70;;
15818;SDS011;8010;53.986;12.106;2022-09-09T04:57:53;24.23;;;13.90;;
15818;SDS011;8010;53.986;12.106;2022-09-09T05:00:19;27.70;;;14.93;;
15818;SDS011;8010;53.986;12.106;2022-09-09T05:02:45;26.80;;;15.63;;
15818;SDS011;8010;53.986;12.106;2022-09-09T05:05:11;28.90;;;15.80;;
15818;SDS011;8010;53.986;12.106;2022-09-09T05:07:37;28.87;;;17.37;;
15818;SDS011;8010;53.986;12.106;2022-09-09T05:10:02;28.97;;;17.13;;
15818;SDS011;8010;53.986;12.106;2022-09-09T05:12:30;30.37;;;16.93;;
15818;SDS011;8010;53.986;12.106;2022-09-09T05:14:56;31.27;;;17.67;;
15818;SDS011;8010;53.986;12.106;2022-09-09T05:17:21;29.70;;;17.97;;
15818;SDS011;8010;53.986;12.106;2022-09-09T05:19:47;36.77;;;19.13;;
15818;SDS011;8010;53.986;12.106;2022-09-09T05:22:17;37.00;;;18.50;;
15818;SDS011;8010;53.986;12.106;2022-09-09T05:24:47;35.47;;;19.07;;
15818;SDS011;8010;53.986;12.106;2022-09-09T05:27:15;37.30;;;20.33;;
15818;SDS011;8010;53.986;12.106;2022-09-09T05:29:44;38.47;;;20.60;;
15818;SDS011;8010;53.986;12.106;2022-09-09T05:32:10;38.43;;;19.93;;
15818;SDS011;8010;53.986;12.106;2022-09-09T05:34:36;37.57;;;19.83;;
15818;SDS011;8010;53.986;12.106;2022-09-09T05:37:02;35.87;;;19.43;;
15818;SDS011;8010;53.986;12.106;2022-09-09T05:39:29;36.93;;;19.20;;
15818;SDS011;8010;53.986;12.106;2022-09-09T05:41:54;33.77;;;20.63;;
15818;SDS011;8010;53.986;12.106;2022-09-09T05:44:20;36.93;;;18.53;;
15818;SDS011;8010;53.986;12.106;2022-09-09T05:46:48;33.37;;;17.57;;
15818;SDS011;8010;53.986;12.106;2022-09-09T05:49:14;33.10;;;17.70;;
15818;SDS011;8010;53.986;12.106;2022-09-09T05:51:40;32.27;;;18.73;;
15818;SDS011;8010;53.986;12.106;2022-09-09T05:54:07;30.30;;;16.77;;
15818;SDS011;8010;53.986;12.106;2022-09-09T05:56:33;26.73;;;16.97;;
15818;SDS011;8010;53.986;12.106;2022-09-09T05:58:59;31.30;;;16.27;;
15818;SDS011;8010;53.986;12.106;2022-09-09T06:01:26;25.70;;;14.90;;
15818;SDS011;8010;53.986;12.106;2022-09-09T06:03:54;25.00;;;14.70;;
15818;SDS011;8010;53.986;12.106;2022-09-09T06:06:20;25.70;;;14.57;;
15818;SDS011;8010;53.986;12.106;2022-09-09T06:08:48;24.47;;;13.33;;
15818;SDS011;8010;53.986;12.106;2022-09-09T06:11:17;23.90;;;13.80;;
15818;SDS011;8010;53.986;12.106;2022-09-09T06:13:47;24.10;;;13.80;;
15818;SDS011;8010;53.986;12.106;2022-09-09T06:16:16;24.43;;;14.03;;
15818;SDS011;8010;53.986;12.106;2022-09-09T06:18:43;25.33;;;14.33;;
15818;SDS011;8010;53.986;12.106;2022-09-09T06:21:16;23.63;;;14.60;;
15818;SDS011;8010;53.986;12.106;2022-09-09T06:23:46;24.83;;;13.90;;
15818;SDS011;8010;53.986;12.106;2022-09-09T06:26:18;30.50;;;14.33;;
15818;SDS011;8010;53.986;12.106;2022-09-09T06:28:49;23.67;;;13.93;;
15818;SDS011;8010;53.986;12.106;2022-09-09T06:31:18;25.50;;;14.47;;
15818;SDS011;8010;53.986;12.106;2022-09-09T06:33:48;27.27;;;15.77;;
15818;SDS011;8010;53.986;12.106;2022-09-09T06:36:22;28.67;;;17.20;;
15818;SDS011;8010;53.986;12.106;2022-09-09T06:38:49;29.87;;;15.90;;
15818;SDS011;8010;53.986;12.106;2022-09-09T06:41:16;24.03;;;15.13;;
15818;SDS011;8010;53.986;12.106;2022-09-09T06:43:43;26.30;;;15.00;;
15818;SDS011;8010;53.986;12.106;2022-09-09T06:46:13;23.80;;;14.70;;
15818;SDS011;8010;53.986;12.106;2022-09-09T06:48:47;26.93;;;16.53;;
15818;SDS011;8010;53.986;12.106;2022-09-09T06:51:16;23.83;;;15.67;;
15818;SDS011;8010;53.986;12.106;2022-09-09T06:53:44;26.60;;;17.87;;
15818;SDS011;8010;53.986;12.106;2022-09-09T06:58:37;24.27;;;16.57;;
15818;SDS011;8010;53.986;12.106;2022-09-09T07:01:06;28.17;;;16.97;;
15818;SDS011;8010;53.986;12.106;2022-09-09T07:03:32;26.20;;;17.53;;
15818;SDS011;8010;53.986;12.106;2022-09-09T07:05:58;24.80;;;17.50;;
15818;SDS011;8010;53.986;12.106;2022-09-09T07:08:24;26.53;;;17.30;;
15818;SDS011;8010;53.986;12.106;2022-09-09T07:10:51;26.40;;;16.77;;
15818;SDS011;8010;53.986;12.106;2022-09-09T07:13:25;22.30;;;15.83;;
15818;SDS011;8010;53.986;12.106;2022-09-09T07:15:52;27.20;;;17.87;;
15818;SDS011;8010;53.986;12.106;2022-09-09T07:18:18;24.50;;;16.67;;
15818;SDS011;8010;53.986;12.106;2022-09-09T07:20:53;24.53;;;16.70;;
15818;SDS011;8010;53.986;12.106;2022-09-09T07:23:20;23.87;;;16.37;;
15818;SDS011;8010;53.986;12.106;2022-09-09T07:25:45;24.17;;;16.87;;
15818;SDS011;8010;53.986;12.106;2022-09-09T07:28:12;24.53;;;15.83;;
15818;SDS011;8010;53.986;12.106;2022-09-09T07:30:38;25.43;;;16.60;;
15818;SDS011;8010;53.986;12.106;2022-09-09T07:33:05;25.67;;;16.30;;
15818;SDS011;8010;53.986;12.106;2022-09-09T07:35:30;24.43;;;16.43;;
15818;SDS011;8010;53.986;12.106;2022-09-09T07:37:56;24.53;;;16.53;;
15818;SDS011;8010;53.986;12.106;2022-09-09T07:40:22;23.33;;;15.40;;
15818;SDS011;8010;53.986;12.106;2022-09-09T07:42:47;23.90;;;16.23;;
15818;SDS011;8010;53.986;12.106;2022-09-09T07:45:13;23.60;;;14.80;;
15818;SDS011;8010;53.986;12.106;2022-09-09T07:47:39;23.57;;;15.90;;
15818;SDS011;8010;53.986;12.106;2022-09-09T07:50:07;19.70;;;14.23;;
15818;SDS011;8010;53.986;12.106;2022-09-09T07:52:34;21.03;;;14.87;;
15818;SDS011;8010;53.986;12.106;2022-09-09T07:54:59;21.23;;;15.13;;
15818;SDS011;8010;53.986;12.106;2022-09-09T07:57:27;23.50;;;15.70;;
15818;SDS011;8010;53.986;12.106;2022-09-09T07:59:55;27.73;;;15.57;;
15818;SDS011;8010;53.986;12.106;2022-09-09T08:02:21;18.40;;;14.87;;
15818;SDS011;8010;53.986;12.106;2022-09-09T08:04:47;19.97;;;13.77;;
15818;SDS011;8010;53.986;12.106;2022-09-09T08:07:13;21.77;;;14.10;;
15818;SDS011;8010;53.986;12.106;2022-09-09T08:09:39;18.67;;;13.93;;
15818;SDS011;8010;53.986;12.106;2022-09-09T08:12:04;17.13;;;13.07;;
15818;SDS011;8010;53.986;12.106;2022-09-09T08:14:33;15.47;;;12.67;;
15818;SDS011;8010;53.986;12.106;2022-09-09T08:16:58;17.70;;;13.03;;
15818;SDS011;8010;53.986;12.106;2022-09-09T08:19:24;18.77;;;12.80;;
15818;SDS011;8010;53.986;12.106;2022-09-09T08:21:50;16.63;;;13.43;;
15818;SDS011;8010;53.986;12.106;2022-09-09T08:24:15;19.77;;;13.87;;
15818;SDS011;8010;53.986;12.106;2022-09-09T08:26:45;19.10;;;13.53;;
15818;SDS011;8010;53.986;12.106;2022-09-09T08:29:14;17.93;;;14.03;;
15818;SDS011;8010;53.986;12.106;2022-09-09T08:31:47;15.87;;;13.17;;
15818;SDS011;8010;53.986;12.106;2022-09-09T08:34:19;17.13;;;13.27;;
15818;SDS011;8010;53.986;12.106;2022-09-09T08:36:46;19.63;;;13.77;;
15818;SDS011;8010;53.986;12.106;2022-09-09T08:39:13;19.43;;;14.33;;
15818;SDS011;8010;53.986;12.106;2022-09-09T08:42:02;16.47;;;13.20;;
15818;SDS011;8010;53.986;12.106;2022-09-09T08:49:43;16.27;;;13.20;;
15818;SDS011;8010;53.986;12.106;2022-09-09T09:01:00;15.70;;;12.30;;
15818;SDS011;8010;53.986;12.106;2022-09-09T09:09:20;15.47;;;12.23;;
15818;SDS011;8010;53.986;12.106;2022-09-09T09:11:55;16.17;;;12.90;;
15818;SDS011;8010;53.986;12.106;2022-09-09T09:14:26;15.37;;;12.10;;
15818;SDS011;8010;53.986;12.106;2022-09-09T09:19:38;16.07;;;12.27;;
15818;SDS011;8010;53.986;12.106;2022-09-09T09:24:54;12.37;;;10.90;;
15818;SDS011;8010;53.986;12.106;2022-09-09T09:27:33;12.43;;;10.53;;
15818;SDS011;8010;53.986;12.106;2022-09-09T09:30:05;11.33;;;9.97;;
15818;SDS011;8010;53.986;12.106;2022-09-09T09:32:41;10.80;;;9.60;;
15818;SDS011;8010;53.986;12.106;2022-09-09T09:35:16;10.87;;;8.87;;
15818;SDS011;8010;53.986;12.106;2022-09-09T09:37:41;10.87;;;9.27;;
15818;SDS011;8010;53.986;12.106;2022-09-09T09:40:12;11.03;;;9.40;;
15818;SDS011;8010;53.986;12.106;2022-09-09T09:42:49;8.97;;;8.07;;
15818;SDS011;8010;53.986;12.106;2022-09-09T09:45:29;10.23;;;8.17;;
15818;SDS011;8010;53.986;12.106;2022-09-09T09:47:59;8.93;;;7.30;;
15818;SDS011;8010;53.986;12.106;2022-09-09T09:50:27;8.87;;;7.63;;
15818;SDS011;8010;53.986;12.106;2022-09-09T09:52:54;7.80;;;7.03;;
15818;SDS011;8010;53.986;12.106;2022-09-09T09:55:22;8.00;;;7.20;;
15818;SDS011;8010;53.986;12.106;2022-09-09T09:57:49;10.43;;;8.33;;
15818;SDS011;8010;53.986;12.106;2022-09-09T10:00:16;8.87;;;7.97;;
15818;SDS011;8010;53.986;12.106;2022-09-09T10:02:46;9.37;;;8.20;;
15818;SDS011;8010;53.986;12.106;2022-09-09T10:10:45;7.53;;;6.20;;
15818;SDS011;8010;53.986;12.106;2022-09-09T10:13:24;7.53;;;6.40;;
15818;SDS011;8010;53.986;12.106;2022-09-09T10:23:58;6.67;;;5.97;;
15818;SDS011;8010;53.986;12.106;2022-09-09T10:26:45;7.23;;;5.63;;
15818;SDS011;8010;53.986;12.106;2022-09-09T10:31:50;8.63;;;6.03;;
15818;SDS011;8010;53.986;12.106;2022-09-09T10:40:19;6.53;;;5.30;;
15818;SDS011;8010;53.986;12.106;2022-09-09T10:56:40;4.53;;;4.10;;
15818;SDS011;8010;53.986;12.106;2022-09-09T10:59:29;7.00;;;5.07;;
15818;SDS011;8010;53.986;12.106;2022-09-09T11:05:02;7.33;;;4.67;;
15818;SDS011;8010;53.986;12.106;2022-09-09T11:07:34;5.10;;;4.60;;
15818;SDS011;8010;53.986;12.106;2022-09-09T11:16:19;4.10;;;3.70;;
15818;SDS011;8010;53.986;12.106;2022-09-09T11:19:16;4.40;;;3.87;;
15818;SDS011;8010;53.986;12.106;2022-09-09T11:21:52;3.80;;;3.30;;
15818;SDS011;8010;53.986;12.106;2022-09-09T11:24:21;5.37;;;3.70;;
15818;SDS011;8010;53.986;12.106;2022-09-09T11:27:02;5.00;;;3.93;;
15818;SDS011;8010;53.986;12.106;2022-09-09T11:29:55;6.33;;;3.17;;
15818;SDS011;8010;53.986;12.106;2022-09-09T11:38:18;3.93;;;3.30;;
15818;SDS011;8010;53.986;12.106;2022-09-09T11:40:44;6.43;;;3.50;;
15818;SDS011;8010;53.986;12.106;2022-09-09T11:43:12;3.93;;;3.10;;
15818;SDS011;8010;53.986;12.106;2022-09-09T11:45:59;4.23;;;3.00;;
15818;SDS011;8010;53.986;12.106;2022-09-09T11:48:34;5.33;;;3.57;;
15818;SDS011;8010;53.986;12.106;2022-09-09T11:51:05;3.60;;;3.13;;
15818;SDS011;8010;53.986;12.106;2022-09-09T11:53:47;3.50;;;2.50;;
15818;SDS011;8010;53.986;12.106;2022-09-09T11:56:24;4.03;;;2.60;;
15818;SDS011;8010;53.986;12.106;2022-09-09T11:58:55;3.43;;;2.60;;
15818;SDS011;8010;53.986;12.106;2022-09-09T12:01:44;3.50;;;2.73;;
15818;SDS011;8010;53.986;12.106;2022-09-09T12:07:23;5.70;;;2.50;;
15818;SDS011;8010;53.986;12.106;2022-09-09T12:12:43;4.30;;;2.20;;
15818;SDS011;8010;53.986;12.106;2022-09-09T12:17:44;2.83;;;2.30;;
15818;SDS011;8010;53.986;12.106;2022-09-09T12:20:16;4.50;;;2.07;;
15818;SDS011;8010;53.986;12.106;2022-09-09T12:28:53;3.27;;;1.97;;
15818;SDS011;8010;53.986;12.106;2022-09-09T12:31:32;4.03;;;2.10;;
15818;SDS011;8010;53.986;12.106;2022-09-09T12:34:16;3.60;;;2.10;;
15818;SDS011;8010;53.986;12.106;2022-09-09T12:36:42;4.33;;;2.17;;
15818;SDS011;8010;53.986;12.106;2022-09-09T12:39:19;3.43;;;1.90;;
15818;SDS011;8010;53.986;12.106;2022-09-09T12:41:52;2.37;;;2.00;;
15818;SDS011;8010;53.986;12.106;2022-09-09T12:44:24;3.40;;;2.23;;
15818;SDS011;8010;53.986;12.106;2022-09-09T12:46:54;3.90;;;2.30;;
15818;SDS011;8010;53.986;12.106;2022-09-09T12:51:53;4.07;;;2.03;;
15818;SDS011;8010;53.986;12.106;2022-09-09T12:54:19;3.17;;;2.33;;
15818;SDS011;8010;53.986;12.106;2022-09-09T12:56:46;3.67;;;2.37;;
15818;SDS011;8010;53.986;12.106;2022-09-09T13:02:11;2.43;;;1.60;;
15818;SDS011;8010;53.986;12.106;2022-09-09T13:04:49;2.80;;;2.30;;
15818;SDS011;8010;53.986;12.106;2022-09-09T13:07:15;3.80;;;2.10;;
15818;SDS011;8010;53.986;12.106;2022-09-09T13:09:43;3.80;;;1.97;;
15818;SDS011;8010;53.986;12.106;2022-09-09T13:12:13;2.87;;;2.00;;
15818;SDS011;8010;53.986;12.106;2022-09-09T13:14:44;2.50;;;1.73;;
15818;SDS011;8010;53.986;12.106;2022-09-09T13:17:21;4.53;;;2.37;;
15818;SDS011;8010;53.986;12.106;2022-09-09T13:19:53;3.47;;;2.50;;
15818;SDS011;8010;53.986;12.106;2022-09-09T13:22:29;5.10;;;2.50;;
15818;SDS011;8010;53.986;12.106;2022-09-09T13:25:20;4.27;;;2.70;;
15818;SDS011;8010;53.986;12.106;2022-09-09T13:30:24;3.23;;;1.70;;
15818;SDS011;8010;53.986;12.106;2022-09-09T13:33:05;4.13;;;1.80;;
15818;SDS011;8010;53.986;12.106;2022-09-09T13:35:34;2.97;;;1.50;;
15818;SDS011;8010;53.986;12.106;2022-09-09T13:38:09;4.13;;;1.20;;
15818;SDS011;8010;53.986;12.106;2022-09-09T13:40:35;4.27;;;1.40;;
15818;SDS011;8010;53.986;12.106;2022-09-09T13:43:01;3.73;;;1.30;;
15818;SDS011;8010;53.986;12.106;2022-09-09T13:45:28;4.90;;;1.40;;
15818;SDS011;8010;53.986;12.106;2022-09-09T13:47:54;4.03;;;1.27;;
15818;SDS011;8010;53.986;12.106;2022-09-09T13:50:27;5.43;;;1.53;;
15818;SDS011;8010;53.986;12.106;2022-09-09T13:52:57;3.17;;;1.43;;
15818;SDS011;8010;53.986;12.106;2022-09-09T13:55:24;4.30;;;1.20;;
15818;SDS011;8010;53.986;12.106;2022-09-09T13:57:58;1.90;;;1.10;;
15818;SDS011;8010;53.986;12.106;2022-09-09T14:00:30;2.03;;;1.73;;
15818;SDS011;8010;53.986;12.106;2022-09-09T14:02:58;1.30;;;0.93;;
15818;SDS011;8010;53.986;12.106;2022-09-09T14:05:26;4.43;;;1.00;;
15818;SDS011;8010;53.986;12.106;2022-09-09T14:07:52;2.50;;;1.43;;
15818;SDS011;8010;53.986;12.106;2022-09-09T14:10:17;5.03;;;1.50;;
15818;SDS011;8010;53.986;12.106;2022-09-09T14:12:43;2.33;;;1.17;;
15818;SDS011;8010;53.986;12.106;2022-09-09T14:15:09;3.77;;;1.40;;
15818;SDS011;8010;53.986;12.106;2022-09-09T14:17:37;2.40;;;1.20;;
15818;SDS011;8010;53.986;12.106;2022-09-09T14:20:03;2.87;;;1.30;;
15818;SDS011;8010;53.986;12.106;2022-09-09T14:22:34;2.63;;;1.30;;
15818;SDS011;8010;53.986;12.106;2022-09-09T14:25:00;3.23;;;1.53;;
15818;SDS011;8010;53.986;12.106;2022-09-09T14:27:27;5.30;;;1.50;;
15818;SDS011;8010;53.986;12.106;2022-09-09T14:29:53;3.77;;;1.30;;
15818;SDS011;8010;53.986;12.106;2022-09-09T14:32:19;2.53;;;1.20;;
15818;SDS011;8010;53.986;12.106;2022-09-09T14:34:45;1.80;;;1.20;;
15818;SDS011;8010;53.986;12.106;2022-09-09T14:37:10;2.20;;;1.10;;
15818;SDS011;8010;53.986;12.106;2022-09-09T14:39:36;4.70;;;1.23;;
15818;SDS011;8010;53.986;12.106;2022-09-09T14:42:02;1.70;;;1.20;;
15818;SDS011;8010;53.986;12.106;2022-09-09T14:44:27;2.27;;;1.23;;
15818;SDS011;8010;53.986;12.106;2022-09-09T14:46:53;3.17;;;1.43;;
15818;SDS011;8010;53.986;12.106;2022-09-09T14:49:19;4.43;;;1.60;;
15818;SDS011;8010;53.986;12.106;2022-09-09T14:51:45;3.97;;;1.77;;
15818;SDS011;8010;53.986;12.106;2022-09-09T14:54:10;4.90;;;1.80;;
15818;SDS011;8010;53.986;12.106;2022-09-09T14:56:36;2.80;;;1.30;;
15818;SDS011;8010;53.986;12.106;2022-09-09T14:59:01;2.80;;;1.50;;
15818;SDS011;8010;53.986;12.106;2022-09-09T15:01:28;2.07;;;1.33;;
15818;SDS011;8010;53.986;12.106;2022-09-09T15:03:55;4.13;;;2.13;;
15818;SDS011;8010;53.986;12.106;2022-09-09T15:06:23;1.40;;;1.30;;
15818;SDS011;8010;53.986;12.106;2022-09-09T15:08:50;3.30;;;1.73;;
15818;SDS011;8010;53.986;12.106;2022-09-09T15:11:17;3.90;;;1.87;;
15818;SDS011;8010;53.986;12.106;2022-09-09T15:13:43;1.97;;;1.43;;
15818;SDS011;8010;53.986;12.106;2022-09-09T15:16:16;4.13;;;1.67;;
15818;SDS011;8010;53.986;12.106;2022-09-09T15:18:43;4.33;;;1.43;;
15818;SDS011;8010;53.986;12.106;2022-09-09T15:21:10;3.03;;;1.97;;
15818;SDS011;8010;53.986;12.106;2022-09-09T15:23:41;5.27;;;2.03;;
15818;SDS011;8010;53.986;12.106;2022-09-09T15:26:07;3.07;;;1.93;;
15818;SDS011;8010;53.986;12.106;2022-09-09T15:28:34;4.80;;;2.00;;
15818;SDS011;8010;53.986;12.106;2022-09-09T15:31:04;5.40;;;1.70;;
15818;SDS011;8010;53.986;12.106;2022-09-09T15:33:32;4.73;;;1.80;;
15818;SDS011;8010;53.986;12.106;2022-09-09T15:35:58;3.63;;;1.93;;
15818;SDS011;8010;53.986;12.106;2022-09-09T15:38:24;4.07;;;2.13;;
15818;SDS011;8010;53.986;12.106;2022-09-09T15:40:53;5.60;;;2.63;;
15818;SDS011;8010;53.986;12.106;2022-09-09T15:43:20;8.17;;;2.60;;
15818;SDS011;8010;53.986;12.106;2022-09-09T15:45:47;9.07;;;2.80;;
15818;SDS011;8010;53.986;12.106;2022-09-09T15:48:19;4.60;;;2.33;;
15818;SDS011;8010;53.986;12.106;2022-09-09T15:51:01;6.27;;;2.37;;
15818;SDS011;8010;53.986;12.106;2022-09-09T15:53:28;3.77;;;2.60;;
15818;SDS011;8010;53.986;12.106;2022-09-09T15:55:54;5.50;;;2.70;;
15818;SDS011;8010;53.986;12.106;2022-09-09T15:58:20;3.63;;;2.00;;
15818;SDS011;8010;53.986;12.106;2022-09-09T16:00:46;3.23;;;2.30;;
15818;SDS011;8010;53.986;12.106;2022-09-09T16:03:11;4.20;;;2.40;;
15818;SDS011;8010;53.986;12.106;2022-09-09T16:05:37;7.27;;;2.80;;
15818;SDS011;8010;53.986;12.106;2022-09-09T16:08:03;5.17;;;2.53;;
15818;SDS011;8010;53.986;12.106;2022-09-09T16:10:29;4.07;;;2.33;;
15818;SDS011;8010;53.986;12.106;2022-09-09T16:12:55;3.27;;;2.47;;
15818;SDS011;8010;53.986;12.106;2022-09-09T16:15:21;5.07;;;2.63;;
15818;SDS011;8010;53.986;12.106;2022-09-09T16:17:48;3.50;;;2.67;;
15818;SDS011;8010;53.986;12.106;2022-09-09T16:20:14;4.83;;;2.63;;
15818;SDS011;8010;53.986;12.106;2022-09-09T16:22:39;2.50;;;2.30;;
15818;SDS011;8010;53.986;12.106;2022-09-09T16:25:05;3.50;;;2.50;;
15818;SDS011;8010;53.986;12.106;2022-09-09T16:27:31;3.20;;;2.47;;
15818;SDS011;8010;53.986;12.106;2022-09-09T16:29:57;3.27;;;2.10;;
15818;SDS011;8010;53.986;12.106;2022-09-09T16:32:22;2.90;;;2.17;;
15818;SDS011;8010;53.986;12.106;2022-09-09T16:34:48;3.07;;;2.10;;
15818;SDS011;8010;53.986;12.106;2022-09-09T16:37:13;3.50;;;1.77;;
15818;SDS011;8010;53.986;12.106;2022-09-09T16:39:39;3.00;;;1.80;;
15818;SDS011;8010;53.986;12.106;2022-09-09T16:42:04;4.40;;;1.70;;
15818;SDS011;8010;53.986;12.106;2022-09-09T16:44:30;1.63;;;1.50;;
15818;SDS011;8010;53.986;12.106;2022-09-09T16:46:55;3.30;;;1.47;;
15818;SDS011;8010;53.986;12.106;2022-09-09T16:49:21;5.80;;;1.47;;
15818;SDS011;8010;53.986;12.106;2022-09-09T16:51:48;1.40;;;0.90;;
15818;SDS011;8010;53.986;12.106;2022-09-09T16:54:15;1.93;;;0.90;;
15818;SDS011;8010;53.986;12.106;2022-09-09T16:56:43;2.13;;;0.80;;
15818;SDS011;8010;53.986;12.106;2022-09-09T16:59:11;2.83;;;0.60;;